sensor_id;sensor_type;location;lat;lon;timestamp;temperature;humidity
42187;DHT22;27858;51.414;0.018;2023-03-01T00:01:05;5.40;99.90
42187;DHT22;27858;51.414;0.018;2023-03-01T00:03:32;5.20;99.90
42187;DHT22;27858;51.414;0.018;2023-03-01T00:05:59;5.20;99.90
42187;DHT22;27858;51.414;0.018;2023-03-01T00:08:26;5.20;99.90
42187;DHT22;27858;51.414;0.018;2023-03-01T00:11:01;5.30;99.90
42187;DHT22;27858;51.414;0.018;2023-03-01T00:13:28;5.30;99.90
42187;DHT22;27858;51.414;0.018;2023-03-01T00:15:55;5.20;99.90
42187;DHT22;27858;51.414;0.018;2023-03-01T00:18:22;5.30;99.90
42187;DHT22;27858;51.414;0.018;2023-03-01T00:20:50;5.30;99.90
42187;DHT22;27858;51.414;0.018;2023-03-01T00:23:18;5.20;99.90
42187;DHT22;27858;51.414;0.018;2023-03-01T00:25:44;5.20;99.90
42187;DHT22;27858;51.414;0.018;2023-03-01T00:28:11;5.10;99.90
42187;DHT22;27858;51.414;0.018;2023-03-01T00:30:38;5.20;99.90
42187;DHT22;27858;51.414;0.018;2023-03-01T00:33:05;5.10;99.90
42187;DHT22;27858;51.414;0.018;2023-03-01T00:35:32;5.00;99.90
42187;DHT22;27858;51.414;0.018;2023-03-01T00:37:59;5.20;99.90
42187;DHT22;27858;51.414;0.018;2023-03-01T00:40:27;5.10;99.90
42187;DHT22;27858;51.414;0.018;2023-03-01T00:42:54;4.90;99.90
42187;DHT22;27858;51.414;0.018;2023-03-01T00:45:21;4.90;99.90
42187;DHT22;27858;51.414;0.018;2023-03-01T00:47:49;5.00;99.90
42187;DHT22;27858;51.414;0.018;2023-03-01T00:50:16;5.00;99.90
42187;DHT22;27858;51.414;0.018;2023-03-01T00:52:43;5.00;99.90
42187;DHT22;27858;51.414;0.018;2023-03-01T00:55:36;4.80;99.90
42187;DHT22;27858;51.414;0.018;2023-03-01T00:58:02;4.90;99.90
42187;DHT22;27858;51.414;0.018;2023-03-01T05:00:47;5.40;99.90
42187;DHT22;27858;51.414;0.018;2023-03-01T05:03:14;5.40;99.90
42187;DHT22;27858;51.414;0.018;2023-03-01T05:05:47;5.20;99.90
42187;DHT22;27858;51.414;0.018;2023-03-01T05:08:14;5.40;99.90
42187;DHT22;27858;51.414;0.018;2023-03-01T05:10:49;5.20;99.90
42187;DHT22;27858;51.414;0.018;2023-03-01T05:13:17;5.20;99.90
42187;DHT22;27858;51.414;0.018;2023-03-01T05:15:49;5.20;99.90
42187;DHT22;27858;51.414;0.018;2023-03-01T05:18:20;5.30;99.90
42187;DHT22;27858;51.414;0.018;2023-03-01T05:20:47;5.20;99.90
42187;DHT22;27858;51.414;0.018;2023-03-01T05:23:13;5.40;99.90
42187;DHT22;27858;51.414;0.018;2023-03-01T05:25:40;5.40;99.90
42187;DHT22;27858;51.414;0.018;2023-03-01T05:28:11;5.30;99.90
42187;DHT22;27858;51.414;0.018;2023-03-01T05:30:38;5.20;99.90
42187;DHT22;27858;51.414;0.018;2023-03-01T05:33:08;5.20;99.90
42187;DHT22;27858;51.414;0.018;2023-03-01T05:35:42;5.40;99.90
42187;DHT22;27858;51.414;0.018;2023-03-01T05:38:10;5.40;99.90
42187;DHT22;27858;51.414;0.018;2023-03-01T05:40:42;5.20;99.90
42187;DHT22;27858;51.414;0.018;2023-03-01T05:43:10;5.30;99.90
42187;DHT22;27858;51.414;0.018;2023-03-01T05:45:38;5.40;99.90
42187;DHT22;27858;51.414;0.018;2023-03-01T05:48:06;5.40;99.90
42187;DHT22;27858;51.414;0.018;2023-03-01T05:50:37;5.40;99.90
42187;DHT22;27858;51.414;0.018;2023-03-01T05:53:10;5.40;99.90
42187;DHT22;27858;51.414;0.018;2023-03-01T05:55:38;5.40;99.90
42187;DHT22;27858;51.414;0.018;2023-03-01T05:58:17;5.30;99.90
42187;DHT22;27858;51.414;0.018;2023-03-01T06:00:47;5.30;99.90
42187;DHT22;27858;51.414;0.018;2023-03-01T06:03:15;5.10;99.90
42187;DHT22;27858;51.414;0.018;2023-03-01T06:05:42;5.20;99.90
42187;DHT22;27858;51.414;0.018;2023-03-01T06:08:10;5.20;99.90
42187;DHT22;27858;51.414;0.018;2023-03-01T06:10:37;5.40;99.90
42187;DHT22;27858;51.414;0.018;2023-03-01T06:13:04;5.20;99.90
42187;DHT22;27858;51.414;0.018;2023-03-01T06:15:31;5.40;99.90
42187;DHT22;27858;51.414;0.018;2023-03-01T06:17:58;5.10;99.90
42187;DHT22;27858;51.414;0.018;2023-03-01T06:20:27;5.30;99.90
42187;DHT22;27858;51.414;0.018;2023-03-01T06:22:54;5.20;99.90
42187;DHT22;27858;51.414;0.018;2023-03-01T06:25:22;5.40;99.90
42187;DHT22;27858;51.414;0.018;2023-03-01T06:27:49;5.20;99.90
42187;DHT22;27858;51.414;0.018;2023-03-01T06:30:18;5.40;99.90
42187;DHT22;27858;51.414;0.018;2023-03-01T06:32:45;5.40;99.90
42187;DHT22;27858;51.414;0.018;2023-03-01T06:35:13;5.10;99.90
42187;DHT22;27858;51.414;0.018;2023-03-01T06:37:41;5.40;99.90
42187;DHT22;27858;51.414;0.018;2023-03-01T06:40:09;5.30;99.90
42187;DHT22;27858;51.414;0.018;2023-03-01T06:42:39;5.20;99.90
42187;DHT22;27858;51.414;0.018;2023-03-01T06:45:07;5.10;99.90
42187;DHT22;27858;51.414;0.018;2023-03-01T06:47:35;5.10;99.90
42187;DHT22;27858;51.414;0.018;2023-03-01T06:50:03;5.10;99.90
42187;DHT22;27858;51.414;0.018;2023-03-01T06:52:30;5.20;99.90
42187;DHT22;27858;51.414;0.018;2023-03-01T06:54:57;5.10;99.90
42187;DHT22;27858;51.414;0.018;2023-03-01T06:57:24;5.10;99.90
42187;DHT22;27858;51.414;0.018;2023-03-01T06:59:51;5.30;99.90
42187;DHT22;27858;51.414;0.018;2023-03-01T07:02:18;5.30;99.90
42187;DHT22;27858;51.414;0.018;2023-03-01T07:04:45;5.30;99.90
42187;DHT22;27858;51.414;0.018;2023-03-01T07:07:12;5.40;99.90
42187;DHT22;27858;51.414;0.018;2023-03-01T07:09:38;5.40;99.90
42187;DHT22;27858;51.414;0.018;2023-03-01T07:12:05;5.40;99.90
42187;DHT22;27858;51.414;0.018;2023-03-01T07:14:32;5.30;99.90
42187;DHT22;27858;51.414;0.018;2023-03-01T07:16:59;5.30;99.90
42187;DHT22;27858;51.414;0.018;2023-03-01T07:19:26;5.20;99.90
42187;DHT22;27858;51.414;0.018;2023-03-01T07:21:53;5.20;99.90
42187;DHT22;27858;51.414;0.018;2023-03-01T07:24:20;5.30;99.90
42187;DHT22;27858;51.414;0.018;2023-03-01T07:26:51;5.50;99.90
42187;DHT22;27858;51.414;0.018;2023-03-01T07:29:18;5.40;99.90
42187;DHT22;27858;51.414;0.018;2023-03-01T07:31:45;5.40;99.90
42187;DHT22;27858;51.414;0.018;2023-03-01T07:34:11;5.40;99.90
42187;DHT22;27858;51.414;0.018;2023-03-01T07:36:38;5.20;99.90
42187;DHT22;27858;51.414;0.018;2023-03-01T07:39:06;5.20;99.90
42187;DHT22;27858;51.414;0.018;2023-03-01T07:41:33;5.20;99.90
42187;DHT22;27858;51.414;0.018;2023-03-01T07:43:59;5.20;99.90
42187;DHT22;27858;51.414;0.018;2023-03-01T07:46:26;5.60;99.90
42187;DHT22;27858;51.414;0.018;2023-03-01T07:48:53;5.30;99.90
42187;DHT22;27858;51.414;0.018;2023-03-01T07:51:20;5.50;99.90
42187;DHT22;27858;51.414;0.018;2023-03-01T07:53:48;5.50;99.90
42187;DHT22;27858;51.414;0.018;2023-03-01T07:56:15;5.60;99.90
42187;DHT22;27858;51.414;0.018;2023-03-01T07:58:46;5.70;99.90
42187;DHT22;27858;51.414;0.018;2023-03-01T08:01:18;5.60;99.90
42187;DHT22;27858;51.414;0.018;2023-03-01T08:03:45;5.40;99.90
42187;DHT22;27858;51.414;0.018;2023-03-01T08:06:13;5.50;99.90
42187;DHT22;27858;51.414;0.018;2023-03-01T08:08:40;5.50;99.90
42187;DHT22;27858;51.414;0.018;2023-03-01T08:11:09;5.60;99.90
42187;DHT22;27858;51.414;0.018;2023-03-01T08:13:36;5.70;99.90
42187;DHT22;27858;51.414;0.018;2023-03-01T08:16:14;5.90;99.90
42187;DHT22;27858;51.414;0.018;2023-03-01T08:18:42;5.70;99.90
42187;DHT22;27858;51.414;0.018;2023-03-01T08:21:12;5.70;99.90
42187;DHT22;27858;51.414;0.018;2023-03-01T08:23:39;5.90;99.90
42187;DHT22;27858;51.414;0.018;2023-03-01T08:28:39;5.90;99.90
42187;DHT22;27858;51.414;0.018;2023-03-01T08:31:27;6.00;99.90
42187;DHT22;27858;51.414;0.018;2023-03-01T08:33:58;5.80;99.90
42187;DHT22;27858;51.414;0.018;2023-03-01T08:36:27;6.00;99.90
42187;DHT22;27858;51.414;0.018;2023-03-01T08:38:55;6.00;99.90
42187;DHT22;27858;51.414;0.018;2023-03-01T08:41:22;6.00;99.90
42187;DHT22;27858;51.414;0.018;2023-03-01T08:43:49;6.00;99.90
42187;DHT22;27858;51.414;0.018;2023-03-01T08:46:16;6.10;99.90
42187;DHT22;27858;51.414;0.018;2023-03-01T08:48:43;5.90;99.90
42187;DHT22;27858;51.414;0.018;2023-03-01T08:53:39;6.10;99.90
42187;DHT22;27858;51.414;0.018;2023-03-01T08:56:07;6.20;99.90
42187;DHT22;27858;51.414;0.018;2023-03-01T08:58:34;6.20;99.90
42187;DHT22;27858;51.414;0.018;2023-03-01T09:01:04;6.10;99.90
42187;DHT22;27858;51.414;0.018;2023-03-01T09:03:33;6.30;99.90
42187;DHT22;27858;51.414;0.018;2023-03-01T09:06:00;6.30;99.90
42187;DHT22;27858;51.414;0.018;2023-03-01T09:08:28;6.40;99.90
42187;DHT22;27858;51.414;0.018;2023-03-01T09:10:55;6.20;99.90
42187;DHT22;27858;51.414;0.018;2023-03-01T09:13:22;6.20;99.90
42187;DHT22;27858;51.414;0.018;2023-03-01T09:15:51;6.40;99.90
42187;DHT22;27858;51.414;0.018;2023-03-01T09:18:18;6.30;99.90
42187;DHT22;27858;51.414;0.018;2023-03-01T09:20:45;6.30;99.90
42187;DHT22;27858;51.414;0.018;2023-03-01T09:23:11;6.40;99.90
42187;DHT22;27858;51.414;0.018;2023-03-01T09:25:38;6.50;99.90
42187;DHT22;27858;51.414;0.018;2023-03-01T09:28:05;6.60;99.90
42187;DHT22;27858;51.414;0.018;2023-03-01T09:30:32;6.60;99.90
42187;DHT22;27858;51.414;0.018;2023-03-01T09:32:59;6.80;99.90
42187;DHT22;27858;51.414;0.018;2023-03-01T09:35:25;6.80;99.90
42187;DHT22;27858;51.414;0.018;2023-03-01T09:37:52;6.70;99.90
42187;DHT22;27858;51.414;0.018;2023-03-01T09:40:21;6.90;99.90
42187;DHT22;27858;51.414;0.018;2023-03-01T09:42:54;7.00;99.90
42187;DHT22;27858;51.414;0.018;2023-03-01T09:45:35;7.00;99.90
42187;DHT22;27858;51.414;0.018;2023-03-01T09:48:03;7.00;99.90
42187;DHT22;27858;51.414;0.018;2023-03-01T09:50:41;7.10;99.90
42187;DHT22;27858;51.414;0.018;2023-03-01T09:53:35;7.20;99.90
42187;DHT22;27858;51.414;0.018;2023-03-01T09:56:04;7.30;99.90
42187;DHT22;27858;51.414;0.018;2023-03-01T10:06:38;7.40;99.90
42187;DHT22;27858;51.414;0.018;2023-03-01T10:09:11;7.30;99.90
42187;DHT22;27858;51.414;0.018;2023-03-01T10:11:43;7.30;99.90
42187;DHT22;27858;51.414;0.018;2023-03-01T10:14:34;7.30;99.90
42187;DHT22;27858;51.414;0.018;2023-03-01T10:19:49;7.20;99.90
42187;DHT22;27858;51.414;0.018;2023-03-01T10:22:22;7.20;99.90
42187;DHT22;27858;51.414;0.018;2023-03-01T10:24:52;7.40;99.90
42187;DHT22;27858;51.414;0.018;2023-03-01T10:27:34;7.50;99.90
42187;DHT22;27858;51.414;0.018;2023-03-01T10:30:11;7.70;99.90
42187;DHT22;27858;51.414;0.018;2023-03-01T10:32:40;7.70;99.90
42187;DHT22;27858;51.414;0.018;2023-03-01T10:38:05;7.80;99.90
42187;DHT22;27858;51.414;0.018;2023-03-01T10:40:33;7.80;99.90
42187;DHT22;27858;51.414;0.018;2023-03-01T10:43:03;7.70;92.50
42187;DHT22;27858;51.414;0.018;2023-03-01T10:45:35;7.70;88.10
42187;DHT22;27858;51.414;0.018;2023-03-01T10:48:12;7.70;78.70
42187;DHT22;27858;51.414;0.018;2023-03-01T10:50:47;7.70;61.30
42187;DHT22;27858;51.414;0.018;2023-03-01T10:53:36;7.80;67.00
42187;DHT22;27858;51.414;0.018;2023-03-01T10:56:10;7.80;74.20
42187;DHT22;27858;51.414;0.018;2023-03-01T10:58:38;7.80;58.50
42187;DHT22;27858;51.414;0.018;2023-03-01T11:01:49;7.90;37.50
42187;DHT22;27858;51.414;0.018;2023-03-01T11:06:33;7.90;32.90
42187;DHT22;27858;51.414;0.018;2023-03-01T11:09:20;7.80;30.00
42187;DHT22;27858;51.414;0.018;2023-03-01T11:11:55;7.90;28.00
42187;DHT22;27858;51.414;0.018;2023-03-01T11:14:23;7.90;19.00
42187;DHT22;27858;51.414;0.018;2023-03-01T11:17:01;7.90;24.70
42187;DHT22;27858;51.414;0.018;2023-03-01T11:19:28;8.00;25.20
42187;DHT22;27858;51.414;0.018;2023-03-01T11:24:51;7.90;14.90
42187;DHT22;27858;51.414;0.018;2023-03-01T11:27:40;7.90;10.50
42187;DHT22;27858;51.414;0.018;2023-03-01T11:30:09;7.90;10.80
42187;DHT22;27858;51.414;0.018;2023-03-01T11:35:37;7.90;1.00
42187;DHT22;27858;51.414;0.018;2023-03-01T11:38:25;7.90;7.40
42187;DHT22;27858;51.414;0.018;2023-03-01T11:43:58;7.90;4.50
42187;DHT22;27858;51.414;0.018;2023-03-01T11:52:13;7.90;1.00
42187;DHT22;27858;51.414;0.018;2023-03-01T12:05:24;8.10;11.80
42187;DHT22;27858;51.414;0.018;2023-03-01T12:08:20;8.20;20.10
42187;DHT22;27858;51.414;0.018;2023-03-01T12:11:03;8.20;9.40
42187;DHT22;27858;51.414;0.018;2023-03-01T12:16:14;8.20;1.00
42187;DHT22;27858;51.414;0.018;2023-03-01T12:19:19;8.10;1.00
42187;DHT22;27858;51.414;0.018;2023-03-01T12:27:30;8.10;1.00
42187;DHT22;27858;51.414;0.018;2023-03-01T12:38:19;8.10;1.00
42187;DHT22;27858;51.414;0.018;2023-03-01T12:49:24;8.00;18.20
42187;DHT22;27858;51.414;0.018;2023-03-01T12:52:10;8.10;11.90
42187;DHT22;27858;51.414;0.018;2023-03-01T12:54:38;8.10;10.20
42187;DHT22;27858;51.414;0.018;2023-03-01T12:57:21;8.20;13.90
42187;DHT22;27858;51.414;0.018;2023-03-01T13:02:57;8.20;25.40
42187;DHT22;27858;51.414;0.018;2023-03-01T13:05:46;8.10;22.90
42187;DHT22;27858;51.414;0.018;2023-03-01T13:08:35;8.20;27.80
42187;DHT22;27858;51.414;0.018;2023-03-01T13:11:11;8.20;32.30
42187;DHT22;27858;51.414;0.018;2023-03-01T13:13:41;8.20;30.70
42187;DHT22;27858;51.414;0.018;2023-03-01T13:19:13;8.10;19.80
42187;DHT22;27858;51.414;0.018;2023-03-01T13:21:42;8.00;14.60
42187;DHT22;27858;51.414;0.018;2023-03-01T13:29:49;8.00;46.50
42187;DHT22;27858;51.414;0.018;2023-03-01T13:32:35;7.90;63.00
42187;DHT22;27858;51.414;0.018;2023-03-01T13:37:37;7.90;91.70
42187;DHT22;27858;51.414;0.018;2023-03-01T13:42:45;7.80;95.50
42187;DHT22;27858;51.414;0.018;2023-03-01T13:45:38;7.80;96.60
42187;DHT22;27858;51.414;0.018;2023-03-01T13:48:16;7.90;99.90
42187;DHT22;27858;51.414;0.018;2023-03-01T13:50:49;8.00;99.90
42187;DHT22;27858;51.414;0.018;2023-03-01T13:53:20;8.00;99.50
42187;DHT22;27858;51.414;0.018;2023-03-01T13:55:51;8.10;94.80
42187;DHT22;27858;51.414;0.018;2023-03-01T13:58:30;8.00;90.90
42187;DHT22;27858;51.414;0.018;2023-03-01T14:01:02;8.20;93.40
42187;DHT22;27858;51.414;0.018;2023-03-01T14:03:32;8.20;86.10
42187;DHT22;27858;51.414;0.018;2023-03-01T14:06:13;8.00;83.90
42187;DHT22;27858;51.414;0.018;2023-03-01T14:08:48;8.00;80.30
42187;DHT22;27858;51.414;0.018;2023-03-01T14:20:07;8.00;81.70
42187;DHT22;27858;51.414;0.018;2023-03-01T14:22:36;8.00;86.50
42187;DHT22;27858;51.414;0.018;2023-03-01T14:27:43;7.90;86.00
42187;DHT22;27858;51.414;0.018;2023-03-01T14:30:30;7.90;91.80
42187;DHT22;27858;51.414;0.018;2023-03-01T14:33:00;7.80;92.90
42187;DHT22;27858;51.414;0.018;2023-03-01T14:35:33;7.80;95.00
42187;DHT22;27858;51.414;0.018;2023-03-01T14:38:00;7.90;99.90
42187;DHT22;27858;51.414;0.018;2023-03-01T14:40:30;7.90;99.90
42187;DHT22;27858;51.414;0.018;2023-03-01T14:43:00;7.90;99.90
42187;DHT22;27858;51.414;0.018;2023-03-01T14:45:29;7.90;99.90
42187;DHT22;27858;51.414;0.018;2023-03-01T14:48:02;8.00;99.90
42187;DHT22;27858;51.414;0.018;2023-03-01T14:50:35;8.00;99.90
42187;DHT22;27858;51.414;0.018;2023-03-01T14:53:07;8.00;99.90
42187;DHT22;27858;51.414;0.018;2023-03-01T14:55:45;8.10;99.90
42187;DHT22;27858;51.414;0.018;2023-03-01T14:58:14;8.10;99.90
42187;DHT22;27858;51.414;0.018;2023-03-01T15:00:57;8.20;99.90
42187;DHT22;27858;51.414;0.018;2023-03-01T15:03:30;8.10;99.90
42187;DHT22;27858;51.414;0.018;2023-03-01T15:06:01;8.20;99.90
42187;DHT22;27858;51.414;0.018;2023-03-01T15:08:28;8.10;99.90
42187;DHT22;27858;51.414;0.018;2023-03-01T15:13:40;8.30;99.90
42187;DHT22;27858;51.414;0.018;2023-03-01T15:16:18;8.30;97.30
42187;DHT22;27858;51.414;0.018;2023-03-01T15:18:51;8.40;94.60
42187;DHT22;27858;51.414;0.018;2023-03-01T15:21:22;8.40;90.20
42187;DHT22;27858;51.414;0.018;2023-03-01T15:24:25;8.40;82.70
42187;DHT22;27858;51.414;0.018;2023-03-01T15:26:58;8.50;75.10
42187;DHT22;27858;51.414;0.018;2023-03-01T15:29:30;8.50;64.80
42187;DHT22;27858;51.414;0.018;2023-03-01T15:32:06;8.50;54.90
42187;DHT22;27858;51.414;0.018;2023-03-01T15:34:37;8.60;52.80
42187;DHT22;27858;51.414;0.018;2023-03-01T15:42:47;8.90;41.90
42187;DHT22;27858;51.414;0.018;2023-03-01T15:47:47;9.10;27.30
42187;DHT22;27858;51.414;0.018;2023-03-01T15:50:36;9.30;10.60
42187;DHT22;27858;51.414;0.018;2023-03-01T15:53:06;9.90;21.30
42187;DHT22;27858;51.414;0.018;2023-03-01T15:55:34;10.60;1.00
42187;DHT22;27858;51.414;0.018;2023-03-01T15:58:06;10.80;1.00
42187;DHT22;27858;51.414;0.018;2023-03-01T16:00:36;10.60;99.90
42187;DHT22;27858;51.414;0.018;2023-03-01T16:03:02;10.60;99.90
42187;DHT22;27858;51.414;0.018;2023-03-01T16:05:33;10.30;99.90
42187;DHT22;27858;51.414;0.018;2023-03-01T16:08:01;10.10;99.90
42187;DHT22;27858;51.414;0.018;2023-03-01T16:10:29;9.80;99.90
42187;DHT22;27858;51.414;0.018;2023-03-01T16:12:56;9.60;99.90
42187;DHT22;27858;51.414;0.018;2023-03-01T16:15:26;9.50;99.90
42187;DHT22;27858;51.414;0.018;2023-03-01T16:17:56;9.40;1.00
42187;DHT22;27858;51.414;0.018;2023-03-01T16:20:28;9.20;1.00
42187;DHT22;27858;51.414;0.018;2023-03-01T16:23:00;9.20;1.00
42187;DHT22;27858;51.414;0.018;2023-03-01T16:25:29;9.10;1.00
42187;DHT22;27858;51.414;0.018;2023-03-01T16:27:56;9.00;1.00
42187;DHT22;27858;51.414;0.018;2023-03-01T16:30:24;8.90;1.00
42187;DHT22;27858;51.414;0.018;2023-03-01T16:32:52;8.80;1.00
42187;DHT22;27858;51.414;0.018;2023-03-01T16:35:21;8.80;1.00
42187;DHT22;27858;51.414;0.018;2023-03-01T16:37:48;8.70;1.00
42187;DHT22;27858;51.414;0.018;2023-03-01T16:40:24;8.70;1.00
42187;DHT22;27858;51.414;0.018;2023-03-01T16:42:53;8.60;1.00
42187;DHT22;27858;51.414;0.018;2023-03-01T16:45:19;8.60;1.00
42187;DHT22;27858;51.414;0.018;2023-03-01T16:47:51;8.60;1.00
42187;DHT22;27858;51.414;0.018;2023-03-01T16:50:22;8.50;1.00
42187;DHT22;27858;51.414;0.018;2023-03-01T16:52:49;8.50;3.90
42187;DHT22;27858;51.414;0.018;2023-03-01T16:55:15;8.40;11.60
42187;DHT22;27858;51.414;0.018;2023-03-01T16:57:42;8.40;17.70
42187;DHT22;27858;51.414;0.018;2023-03-01T17:00:11;8.30;25.20
42187;DHT22;27858;51.414;0.018;2023-03-01T17:02:40;8.30;33.20
42187;DHT22;27858;51.414;0.018;2023-03-01T17:05:08;8.30;34.50
42187;DHT22;27858;51.414;0.018;2023-03-01T17:07:36;8.30;34.30
42187;DHT22;27858;51.414;0.018;2023-03-01T17:10:05;8.20;28.90
42187;DHT22;27858;51.414;0.018;2023-03-01T17:12:34;8.20;26.80
42187;DHT22;27858;51.414;0.018;2023-03-01T17:15:03;8.10;32.10
42187;DHT22;27858;51.414;0.018;2023-03-01T17:17:30;8.10;35.50
42187;DHT22;27858;51.414;0.018;2023-03-01T17:19:57;8.10;39.30
42187;DHT22;27858;51.414;0.018;2023-03-01T17:22:24;8.00;44.80
42187;DHT22;27858;51.414;0.018;2023-03-01T17:24:50;8.10;50.00
42187;DHT22;27858;51.414;0.018;2023-03-01T17:27:17;8.00;49.10
42187;DHT22;27858;51.414;0.018;2023-03-01T17:29:44;8.00;49.60
42187;DHT22;27858;51.414;0.018;2023-03-01T17:32:11;7.90;50.90
42187;DHT22;27858;51.414;0.018;2023-03-01T17:34:38;7.90;53.90
42187;DHT22;27858;51.414;0.018;2023-03-01T17:37:06;7.90;50.40
42187;DHT22;27858;51.414;0.018;2023-03-01T17:39:32;7.90;48.60
42187;DHT22;27858;51.414;0.018;2023-03-01T17:42:03;7.80;49.80
42187;DHT22;27858;51.414;0.018;2023-03-01T17:44:31;7.80;51.90
42187;DHT22;27858;51.414;0.018;2023-03-01T17:47:01;7.80;53.50
42187;DHT22;27858;51.414;0.018;2023-03-01T17:49:28;7.80;54.40
42187;DHT22;27858;51.414;0.018;2023-03-01T17:51:55;7.70;59.10
42187;DHT22;27858;51.414;0.018;2023-03-01T17:54:22;7.70;61.90
42187;DHT22;27858;51.414;0.018;2023-03-01T17:56:50;7.70;64.30
42187;DHT22;27858;51.414;0.018;2023-03-01T17:59:17;7.70;62.80
42187;DHT22;27858;51.414;0.018;2023-03-01T18:01:44;7.70;65.40
42187;DHT22;27858;51.414;0.018;2023-03-01T18:04:11;7.70;64.90
42187;DHT22;27858;51.414;0.018;2023-03-01T18:06:38;7.70;60.80
42187;DHT22;27858;51.414;0.018;2023-03-01T18:09:06;7.70;65.50
42187;DHT22;27858;51.414;0.018;2023-03-01T18:11:35;7.60;60.90
42187;DHT22;27858;51.414;0.018;2023-03-01T18:14:03;7.60;55.90
42187;DHT22;27858;51.414;0.018;2023-03-01T18:16:30;7.60;52.10
42187;DHT22;27858;51.414;0.018;2023-03-01T18:19:00;7.50;47.90
42187;DHT22;27858;51.414;0.018;2023-03-01T18:21:28;7.60;49.50
42187;DHT22;27858;51.414;0.018;2023-03-01T18:23:56;7.50;49.90
42187;DHT22;27858;51.414;0.018;2023-03-01T18:26:25;7.50;49.70
42187;DHT22;27858;51.414;0.018;2023-03-01T18:28:54;7.60;53.40
42187;DHT22;27858;51.414;0.018;2023-03-01T18:31:24;7.50;58.20
42187;DHT22;27858;51.414;0.018;2023-03-01T18:33:52;7.50;53.20
42187;DHT22;27858;51.414;0.018;2023-03-01T18:36:25;7.40;53.70
42187;DHT22;27858;51.414;0.018;2023-03-01T18:38:53;7.50;61.50
42187;DHT22;27858;51.414;0.018;2023-03-01T18:41:24;7.50;59.70
42187;DHT22;27858;51.414;0.018;2023-03-01T18:43:52;7.50;60.70
42187;DHT22;27858;51.414;0.018;2023-03-01T18:46:22;7.50;66.10
42187;DHT22;27858;51.414;0.018;2023-03-01T18:48:50;7.40;78.60
42187;DHT22;27858;51.414;0.018;2023-03-01T18:51:20;7.40;83.20
42187;DHT22;27858;51.414;0.018;2023-03-01T18:53:47;7.40;92.00
42187;DHT22;27858;51.414;0.018;2023-03-01T18:56:14;7.40;95.10
42187;DHT22;27858;51.414;0.018;2023-03-01T18:58:42;7.50;97.80
42187;DHT22;27858;51.414;0.018;2023-03-01T19:01:20;7.40;98.50
42187;DHT22;27858;51.414;0.018;2023-03-01T19:03:47;7.40;99.90
42187;DHT22;27858;51.414;0.018;2023-03-01T19:06:15;7.40;99.90
42187;DHT22;27858;51.414;0.018;2023-03-01T19:08:42;7.40;99.90
42187;DHT22;27858;51.414;0.018;2023-03-01T19:11:11;7.30;99.90
42187;DHT22;27858;51.414;0.018;2023-03-01T19:13:39;7.30;99.90
42187;DHT22;27858;51.414;0.018;2023-03-01T19:16:15;7.30;99.90
42187;DHT22;27858;51.414;0.018;2023-03-01T19:18:45;7.10;99.90
42187;DHT22;27858;51.414;0.018;2023-03-01T19:21:22;7.20;99.90
42187;DHT22;27858;51.414;0.018;2023-03-01T19:23:54;7.10;99.90
42187;DHT22;27858;51.414;0.018;2023-03-01T19:26:24;7.20;99.90
42187;DHT22;27858;51.414;0.018;2023-03-01T19:28:55;7.20;99.90
42187;DHT22;27858;51.414;0.018;2023-03-01T19:31:25;7.10;99.90
42187;DHT22;27858;51.414;0.018;2023-03-01T19:33:55;7.00;99.90
42187;DHT22;27858;51.414;0.018;2023-03-01T19:36:37;7.00;99.90
42187;DHT22;27858;51.414;0.018;2023-03-01T19:39:06;6.90;99.90
42187;DHT22;27858;51.414;0.018;2023-03-01T19:41:34;6.90;99.90
42187;DHT22;27858;51.414;0.018;2023-03-01T19:44:02;6.80;99.90
42187;DHT22;27858;51.414;0.018;2023-03-01T19:46:32;6.90;99.90
42187;DHT22;27858;51.414;0.018;2023-03-01T19:49:01;6.80;99.90
42187;DHT22;27858;51.414;0.018;2023-03-01T19:51:31;6.80;99.90
42187;DHT22;27858;51.414;0.018;2023-03-01T19:54:04;6.80;99.90
42187;DHT22;27858;51.414;0.018;2023-03-01T19:56:33;6.80;99.90
42187;DHT22;27858;51.414;0.018;2023-03-01T19:59:01;6.70;99.90
42187;DHT22;27858;51.414;0.018;2023-03-01T20:01:31;6.70;99.90
42187;DHT22;27858;51.414;0.018;2023-03-01T20:04:00;6.70;99.90
42187;DHT22;27858;51.414;0.018;2023-03-01T20:06:29;6.70;99.90
42187;DHT22;27858;51.414;0.018;2023-03-01T20:08:56;6.50;99.90
42187;DHT22;27858;51.414;0.018;2023-03-01T20:11:28;6.60;99.90
42187;DHT22;27858;51.414;0.018;2023-03-01T20:13:55;6.60;99.90
42187;DHT22;27858;51.414;0.018;2023-03-01T20:16:22;6.50;99.90
42187;DHT22;27858;51.414;0.018;2023-03-01T20:18:52;6.60;99.90
42187;DHT22;27858;51.414;0.018;2023-03-01T20:21:19;6.50;99.90
42187;DHT22;27858;51.414;0.018;2023-03-01T20:23:50;6.50;99.90
42187;DHT22;27858;51.414;0.018;2023-03-01T20:26:17;6.50;99.90
42187;DHT22;27858;51.414;0.018;2023-03-01T20:28:48;6.50;99.90
42187;DHT22;27858;51.414;0.018;2023-03-01T20:31:17;6.40;99.90
42187;DHT22;27858;51.414;0.018;2023-03-01T20:33:47;6.40;99.90
42187;DHT22;27858;51.414;0.018;2023-03-01T20:36:14;6.40;99.90
42187;DHT22;27858;51.414;0.018;2023-03-01T20:38:41;6.30;99.90
42187;DHT22;27858;51.414;0.018;2023-03-01T20:41:11;6.30;99.90
42187;DHT22;27858;51.414;0.018;2023-03-01T20:43:40;6.20;99.90
42187;DHT22;27858;51.414;0.018;2023-03-01T20:46:09;6.20;99.90
42187;DHT22;27858;51.414;0.018;2023-03-01T20:48:41;6.10;99.90
42187;DHT22;27858;51.414;0.018;2023-03-01T20:51:10;6.20;99.90
42187;DHT22;27858;51.414;0.018;2023-03-01T20:53:37;6.00;99.90
42187;DHT22;27858;51.414;0.018;2023-03-01T20:56:09;6.10;99.90
42187;DHT22;27858;51.414;0.018;2023-03-01T20:58:36;6.10;99.90
42187;DHT22;27858;51.414;0.018;2023-03-01T21:01:05;6.10;99.90
42187;DHT22;27858;51.414;0.018;2023-03-01T21:03:32;6.00;99.90
42187;DHT22;27858;51.414;0.018;2023-03-01T21:06:01;6.00;99.90
42187;DHT22;27858;51.414;0.018;2023-03-01T21:08:29;6.00;99.90
42187;DHT22;27858;51.414;0.018;2023-03-01T21:10:56;5.90;99.90
42187;DHT22;27858;51.414;0.018;2023-03-01T21:13:24;5.90;99.90
42187;DHT22;27858;51.414;0.018;2023-03-01T21:16:03;5.80;99.90
42187;DHT22;27858;51.414;0.018;2023-03-01T21:18:31;5.70;99.90
42187;DHT22;27858;51.414;0.018;2023-03-01T21:21:03;5.70;99.90
42187;DHT22;27858;51.414;0.018;2023-03-01T21:23:32;5.60;99.90
42187;DHT22;27858;51.414;0.018;2023-03-01T21:26:09;5.60;99.90
42187;DHT22;27858;51.414;0.018;2023-03-01T21:28:37;5.50;99.90
42187;DHT22;27858;51.414;0.018;2023-03-01T21:31:07;5.50;99.90
42187;DHT22;27858;51.414;0.018;2023-03-01T21:33:35;5.60;99.90
42187;DHT22;27858;51.414;0.018;2023-03-01T21:36:04;5.50;99.90
42187;DHT22;27858;51.414;0.018;2023-03-01T21:38:34;5.50;99.90
42187;DHT22;27858;51.414;0.018;2023-03-01T21:41:05;5.50;99.90
42187;DHT22;27858;51.414;0.018;2023-03-01T21:43:32;5.40;99.90
42187;DHT22;27858;51.414;0.018;2023-03-01T21:46:04;5.50;99.90
42187;DHT22;27858;51.414;0.018;2023-03-01T21:48:32;5.30;99.90
42187;DHT22;27858;51.414;0.018;2023-03-01T21:51:00;5.30;99.90
42187;DHT22;27858;51.414;0.018;2023-03-01T21:53:29;5.20;99.90
42187;DHT22;27858;51.414;0.018;2023-03-01T21:55:57;5.30;99.90
42187;DHT22;27858;51.414;0.018;2023-03-01T21:58:24;5.20;99.90